WELCOME TO Fly Ecuador Virtual

Fly Ecuador Virtual es una organización creada con el fin de brindar una plataforma que permita a los pilotos virtuales, principalmente ecuatorianos, tener un lugar donde registrar sus horas de vuelo, sus certificados de conocimiento adquiridos, las rutas que han volado y los destinos que han visitado. Así mismo, se busca ayudar a todos los pilotos a expandir su conocimiento sobre el mundo de la aviación real y virtual por medio de publicaciones, foros y cursos en línea.
A diferencia de las aerolíneas virtuales tradicionales, Fly Ecuador Virtual no simula las operaciones de una aerolínea del mundo real en específico. Un miembro de Fly Ecuador Virtual tiene toda la libertad de volar cualquier aeronave que opere en el espacio aéreo ecuatoriano real, en cualquier ruta, sea esta nacional o internacional, IFR o VFR, aeronaves monomotor, multimotor o helicópteros. Todo esto con el objetivo de expandir las operaciones virtuales dentro del espacio aéreo ecuatoriano, creando una comunidad en la que se compartan conocimientos y experiencias que beneficien a todos sus integrantes.
El crecimiento de Fly Ecuador Virtual depende de la participación conjunta de todos sus miembros, por este motivo se incentiva la participación en línea a través de los diferentes medios descritos más adelante en este sitio web.

STATISTICS

Pilots 61
Total hours: 10505.3
Flights total 1663

LATEST FLIGHTS

CallsignPilotDepartureArrivalDateFlight Time
ECU024Arturo CarvajalSEQMSEGU15-07-20180.56
ECU017Jorge NajeraSEGSSEQM15-07-20182.47
ECU070Luis JaramilloSEGUEHAM15-07-201810.70
ECU017Jorge NajeraSEQMSEGS13-07-20182.84
ECU017Jorge NajeraSEGUSEQM01-07-20180.64

NEWEST PILOTS

PilotJoined
ECU079-Vicente Torres13-07-2017
ECU077-Fernando Flores Valarezo06-07-2017
ECU078-Ricardo Guzman05-07-2017
ECU075-FREDDY RIVERA29-06-2017
ECU074-Emilio Mayhua28-06-2017

FUTURE EVENTS & METARS

EventDate
METAR
SEGU - José Joaquín de Olmedo International Airport, Guayaquil, ECU
Distance from station: N 0mi, 0km
Updated: Wed, 18-Jul-2018 4:00pm PDT
Mostly Cloudy
Mostly Cloudy
 Wind from SW
Wind: SW 8 mph , 13 km/h
Temperature: 77°F , 25°C
Dew Point: 64°F , 18°C
Humidity: 65%
Barometer: 29.85 inHg , 1011 hPa
Clouds: Mostly Cloudy
Visibility: 6 miles , 10 km
Cloud details: Mostly Cloudy 2600 ft
2018/07/18 23:00 SEGU 182300Z 22007KT 200V260 9999 BKN026 25/18 Q1011NOSIG RMK A2986
 
SEQM - Aeropuerto Internacional Mariscal Sucre, ECU
Distance from station: NE 120mi, 200km
Updated: Wed, 18-Jul-2018 4:00pm PDT
Partly Cloudy
Partly Cloudy
 Wind from N
Wind: N 14 mph , 22 km/h
Temperature: 59°F , 15°C
Dew Point: 54°F , 12°C
Humidity: 82%
Barometer: 30.21 inHg , 1023 hPa
Clouds: Partly Cloudy
Visibility: 6 miles , 10 km
Cloud details: Partly Cloudy 4000 ft
2018/07/18 23:00 SEQM 182300Z 01012KT 9999 SCT040 15/12 Q1023 NOSIG RMK A3021
 
SECU - Mariscal Lamar Airpor, ECU
Distance from station: ENE 80mi, 120km
Updated: Wed, 18-Jul-2018 4:00pm PDT
Mostly Cloudy
Mostly Cloudy
 Wind from E
Wind: E 12 mph , 19 km/h
Temperature: 63°F , 17°C
Dew Point: 46°F , 8°C
Humidity: 56%
Barometer: 30.24 inHg , 1024 hPa
Clouds: Mostly Cloudy
Visibility: 6 miles , 10 km
Cloud details: Mostly Cloudy 4000 ft
2018/07/18 23:00 SECU 182300Z 08010KT 9999 BKN040 17/08 Q1024
 
SELT - Cotopaxi International Airport, ECU
Distance from station: NW 21mi, 34km
Updated: Wed, 18-Jul-2018 4:00pm PDT
Partly Cloudy
Partly Cloudy
 Wind from S
Wind: S 21 mph , 33 km/h
Temperature: 59°F , 15°C
Dew Point: 46°F , 8°C
Humidity: 63%
Barometer: 30.33 inHg , 1027 hPa
Clouds: Partly Cloudy
Visibility: 6 miles , 10 km
Cloud details: Partly Cloudy 3000 ft
2018/07/18 23:00 SELT 182300Z 17018KT 9999 SCT030 15/08 Q1027
 
SEMT - Eloy Alfaro International Airport, ECU
Distance from station: SSE 70mi, 100km
Updated: Wed, 18-Jul-2018 4:00pm PDT
Overcast
Overcast
 Wind from SSW
Wind: SSW 10 mph , 17 km/h
Temperature: 72°F , 22°C
Dew Point: 70°F , 21°C
Humidity: 94%
Barometer: 29.88 inHg , 1012 hPa
Clouds: Overcast
Visibility: 6 miles , 10 km
Cloud details: Overcast 2000 ft
2018/07/18 23:00 SEMT 182300Z 20009KT 9999 OVC020 22/21 Q1012 RMK A2990

Metar display script from Saratoga-Weather.org

TWEETS

NOTAMS

NOTAMDate